createdAt,value
2023-03-21T00:00:31.833Z,100840.13
2023-03-21T00:03:03.639Z,100827.84
2023-03-21T00:05:35.304Z,100763.72
2023-03-21T00:08:06.915Z,100794.44
2023-03-21T00:10:43.533Z,100858.53
2023-03-21T00:13:15.875Z,100842.72
2023-03-21T00:18:46.619Z,100841.88
2023-03-21T00:21:48.719Z,100746.16
2023-03-21T00:24:12.729Z,100863.00
2023-03-21T00:26:45.081Z,100798.84
2023-03-21T00:29:16.886Z,100746.16
2023-03-21T00:31:48.357Z,100738.25
2023-03-21T00:34:26.858Z,100819.88
2023-03-21T00:37:08.947Z,100814.63
2023-03-21T00:39:40.511Z,100806.69
2023-03-21T00:42:12.140Z,100821.63
2023-03-21T00:44:44.819Z,100785.63
2023-03-21T00:47:16.389Z,100811.94
2023-03-21T00:49:47.777Z,100810.16
2023-03-21T00:52:27.539Z,100818.06
2023-03-21T00:55:15.452Z,100766.28
2023-03-21T00:57:50.183Z,100724.19
2023-03-21T01:00:27.751Z,100804.03
2023-03-21T01:03:17.676Z,100802.25
2023-03-21T01:06:04.944Z,100791.72
2023-03-21T01:08:51.621Z,100743.44
2023-03-21T01:11:27.025Z,100818.03
2023-03-21T01:14:14.684Z,100794.31
2023-03-21T01:16:52.761Z,100722.31
2023-03-21T01:19:37.673Z,100814.50
2023-03-21T01:22:16.130Z,100717.13
2023-03-21T01:24:55.136Z,100811.94
2023-03-21T01:27:28.194Z,100799.59
2023-03-21T01:29:59.835Z,100758.34
2023-03-21T01:32:31.541Z,100797.81
2023-03-21T01:35:04.103Z,100792.56
2023-03-21T01:37:35.465Z,100795.16
2023-03-21T01:40:07.203Z,100797.72
2023-03-21T01:42:39.515Z,100752.06
2023-03-21T01:45:48.561Z,100805.56
2023-03-21T01:48:21.596Z,100797.69
2023-03-21T01:50:53.098Z,100809.94
2023-03-21T01:53:30.049Z,100767.78
2023-03-21T01:56:07.006Z,100779.19
2023-03-21T01:58:40.356Z,100789.75
2023-03-21T02:01:11.920Z,100745.84
2023-03-21T02:03:52.555Z,100691.41
2023-03-21T02:06:36.588Z,100703.66
2023-03-21T02:09:12.154Z,100747.53
2023-03-21T02:11:46.461Z,100764.19
2023-03-21T02:14:28.332Z,100723.78
2023-03-21T02:17:22.176Z,100762.38
2023-03-21T02:20:09.042Z,100777.22
2023-03-21T02:23:04.902Z,100790.47
2023-03-21T02:26:06.680Z,100782.56
2023-03-21T02:28:50.944Z,100760.63
2023-03-21T02:31:28.467Z,100753.56
2023-03-21T02:34:39.065Z,100774.59
2023-03-21T02:37:17.950Z,100760.59
2023-03-21T02:40:01.117Z,100771.06
2023-03-21T02:42:48.925Z,100762.28
2023-03-21T02:45:31.287Z,100767.56
2023-03-21T02:48:20.219Z,100764.94
2023-03-21T02:51:00.581Z,100767.50
2023-03-21T02:53:36.902Z,100692.03
2023-03-21T02:56:10.633Z,100736.81
2023-03-21T02:58:43.146Z,100685.06
2023-03-21T03:01:14.659Z,100736.78
2023-03-21T03:03:47.485Z,100719.28
2023-03-21T03:06:24.075Z,100737.63
2023-03-21T03:09:17.878Z,100756.94
2023-03-21T03:11:55.211Z,100750.78
2023-03-21T03:14:56.359Z,100756.91
2023-03-21T03:18:10.222Z,100748.13
2023-03-21T03:20:50.711Z,100755.13
2023-03-21T03:23:34.212Z,100722.66
2023-03-21T03:26:12.708Z,100738.41
2023-03-21T03:28:51.623Z,100744.53
2023-03-21T03:31:27.433Z,100678.75
2023-03-21T03:34:13.526Z,100722.59
2023-03-21T03:36:51.489Z,100739.28
2023-03-21T03:39:33.346Z,100741.88
2023-03-21T03:42:27.464Z,100736.63
2023-03-21T03:45:01.205Z,100713.91
2023-03-21T03:47:56.394Z,100723.41
2023-03-21T03:50:41.413Z,100713.81
2023-03-21T03:53:38.049Z,100737.44
2023-03-21T03:56:11.529Z,100710.25
2023-03-21T03:58:45.979Z,100728.72
2023-03-21T04:01:17.810Z,100643.69
2023-03-21T04:03:56.263Z,100716.41
2023-03-21T04:06:32.555Z,100727.75
2023-03-21T04:09:18.812Z,100652.34
2023-03-21T04:11:51.811Z,100725.13
2023-03-21T04:14:25.566Z,100733.88
2023-03-21T04:16:59.824Z,100709.31
2023-03-21T04:19:31.216Z,100657.56
2023-03-21T04:22:02.681Z,100713.69
2023-03-21T04:24:37.626Z,100715.44
2023-03-21T04:27:09.046Z,100722.47
2023-03-21T04:29:40.817Z,100702.28
2023-03-21T04:32:17.696Z,100706.72
2023-03-21T04:34:50.005Z,100696.09
2023-03-21T04:37:23.537Z,100725.91
2023-03-21T04:39:54.873Z,100702.25
2023-03-21T04:42:26.358Z,100721.50
2023-03-21T04:44:58.069Z,100717.97
2023-03-21T04:47:29.583Z,100705.66
2023-03-21T04:50:00.969Z,100713.56
2023-03-21T04:52:32.341Z,100713.56
2023-03-21T04:55:04.228Z,100689.00
2023-03-21T04:57:37.445Z,100709.16
2023-03-21T05:00:10.374Z,100694.25
2023-03-21T05:02:41.833Z,100705.66
2023-03-21T05:05:13.551Z,100718.81
2023-03-21T05:07:44.876Z,100710.06
2023-03-21T05:10:16.496Z,100722.31
2023-03-21T05:12:47.897Z,100631.13
2023-03-21T05:15:19.343Z,100625.03
2023-03-21T05:17:52.877Z,100703.88
2023-03-21T05:20:25.288Z,100707.38
2023-03-21T05:22:56.605Z,100711.75
2023-03-21T05:25:35.800Z,100703.88
2023-03-21T05:28:08.090Z,100688.94
2023-03-21T05:30:39.474Z,100700.38
2023-03-21T05:33:11.193Z,100665.25
2023-03-21T05:35:42.520Z,100694.16
2023-03-21T05:38:13.873Z,100693.25
2023-03-21T05:40:50.061Z,100618.69
2023-03-21T05:43:21.360Z,100701.91
2023-03-21T05:45:52.944Z,100690.56
2023-03-21T05:48:24.440Z,100685.28
2023-03-21T05:50:55.913Z,100697.53
2023-03-21T05:53:27.550Z,100694.00
2023-03-21T05:55:58.880Z,100679.94
2023-03-21T05:58:30.575Z,100685.16
2023-03-21T06:01:02.043Z,100637.03
2023-03-21T06:03:33.364Z,100657.16
2023-03-21T06:06:05.161Z,100701.78
2023-03-21T06:08:36.605Z,100682.50
2023-03-21T06:11:37.144Z,100707.06
2023-03-21T06:14:08.514Z,100614.19
2023-03-21T06:16:39.970Z,100689.50
2023-03-21T06:19:11.856Z,100655.28
2023-03-21T06:21:43.156Z,100629.03
2023-03-21T06:24:14.542Z,100679.88
2023-03-21T06:26:46.339Z,100636.81
2023-03-21T06:29:17.795Z,100671.81
2023-03-21T06:31:49.118Z,100676.22
2023-03-21T06:34:20.822Z,100689.22
2023-03-21T06:36:54.638Z,100695.25
2023-03-21T06:39:27.158Z,100635.56
2023-03-21T06:41:59.104Z,100672.25
2023-03-21T06:44:31.410Z,100681.84
2023-03-21T06:47:02.879Z,100696.75
2023-03-21T06:49:34.681Z,100670.38
2023-03-21T06:52:06.399Z,100698.41
2023-03-21T06:54:38.145Z,100694.97
2023-03-21T06:57:09.557Z,100697.50
2023-03-21T06:59:41.936Z,100695.00
2023-03-21T07:02:13.431Z,100694.06
2023-03-21T07:04:44.913Z,100689.75
2023-03-21T07:07:16.475Z,100686.22
2023-03-21T07:09:48.082Z,100687.13
2023-03-21T07:12:20.854Z,100659.91
2023-03-21T07:14:52.226Z,100681.81
2023-03-21T07:17:23.772Z,100686.28
2023-03-21T07:19:55.331Z,100681.03
2023-03-21T07:22:27.656Z,100688.03
2023-03-21T07:25:05.163Z,100693.28
2023-03-21T07:27:39.116Z,100596.94
2023-03-21T07:30:12.157Z,100691.53
2023-03-21T07:32:45.504Z,100631.97
2023-03-21T07:35:18.324Z,100652.91
2023-03-21T07:37:49.723Z,100690.56
2023-03-21T07:40:21.138Z,100615.22
2023-03-21T07:42:52.742Z,100696.56
2023-03-21T07:45:26.832Z,100641.31
2023-03-21T07:47:58.177Z,100628.97
2023-03-21T07:50:29.948Z,100668.22
2023-03-21T07:53:01.701Z,100608.66
2023-03-21T07:55:36.045Z,100690.88
2023-03-21T07:58:08.620Z,100605.81
2023-03-21T08:00:40.060Z,100693.41
2023-03-21T08:03:12.064Z,100695.97
2023-03-21T08:05:44.283Z,100618.06
2023-03-21T08:08:15.764Z,100689.91
2023-03-21T08:10:49.143Z,100677.56
2023-03-21T08:13:20.761Z,100682.84
2023-03-21T08:15:52.073Z,100690.75
2023-03-21T08:18:23.488Z,100674.81
2023-03-21T08:20:56.920Z,100692.38
2023-03-21T08:23:28.317Z,100676.63
2023-03-21T08:25:59.799Z,100703.91
2023-03-21T08:28:31.312Z,100703.81
2023-03-21T08:31:10.625Z,100652.00
2023-03-21T08:33:42.153Z,100685.25
2023-03-21T08:36:13.748Z,100696.47
2023-03-21T08:38:46.230Z,100665.75
2023-03-21T08:41:19.436Z,100677.09
2023-03-21T08:43:51.024Z,100590.94
2023-03-21T08:46:22.434Z,100631.91
2023-03-21T08:48:54.515Z,100688.66
2023-03-21T08:51:26.938Z,100680.72
2023-03-21T08:53:58.276Z,100670.97
2023-03-21T08:56:29.702Z,100675.19
2023-03-21T08:59:02.922Z,100602.50
2023-03-21T09:01:34.401Z,100659.28
2023-03-21T09:04:08.187Z,100690.00
2023-03-21T09:06:49.583Z,100679.44
2023-03-21T09:09:23.095Z,100593.78
2023-03-21T09:11:55.201Z,100664.63
2023-03-21T09:14:28.940Z,100666.22
2023-03-21T09:17:01.443Z,100666.53
2023-03-21T09:19:33.131Z,100610.31
2023-03-21T09:22:06.002Z,100589.16
2023-03-21T09:24:38.054Z,100677.44
2023-03-21T09:27:10.534Z,100609.03
2023-03-21T09:29:44.651Z,100684.25
2023-03-21T09:32:18.098Z,100671.88
2023-03-21T09:34:49.787Z,100674.50
2023-03-21T09:37:21.152Z,100669.22
2023-03-21T09:39:52.636Z,100599.28
2023-03-21T09:42:57.782Z,100623.78
2023-03-21T09:45:40.899Z,100664.03
2023-03-21T09:48:47.046Z,100667.56
2023-03-21T09:51:31.212Z,100597.66
2023-03-21T09:54:08.691Z,100647.31
2023-03-21T09:56:43.042Z,100630.66
2023-03-21T09:59:22.879Z,100651.50
2023-03-21T10:01:55.385Z,100658.47
2023-03-21T10:04:27.588Z,100632.25
2023-03-21T10:07:02.154Z,100661.88
2023-03-21T10:09:38.496Z,100660.19
2023-03-21T10:12:20.775Z,100637.50
2023-03-21T10:14:58.013Z,100635.72
2023-03-21T10:17:33.833Z,100655.75
2023-03-21T10:20:16.714Z,100666.91
2023-03-21T10:22:51.041Z,100647.78
2023-03-21T10:25:30.281Z,100586.66
2023-03-21T10:28:03.465Z,100645.31
2023-03-21T10:30:52.386Z,100621.69
2023-03-21T10:33:27.582Z,100630.44
2023-03-21T10:36:02.217Z,100640.09
2023-03-21T10:38:35.643Z,100624.28
2023-03-21T10:41:07.260Z,100648.66
2023-03-21T10:43:42.067Z,100651.06
2023-03-21T10:46:21.155Z,100596.56
2023-03-21T10:48:53.905Z,100615.78
2023-03-21T10:51:32.556Z,100569.50
2023-03-21T10:54:08.553Z,100553.53
2023-03-21T10:57:15.074Z,100618.25
2023-03-21T10:59:59.802Z,100641.03
2023-03-21T11:02:34.929Z,100567.41
2023-03-21T11:05:18.768Z,100552.28
2023-03-21T11:08:06.983Z,100620.38
2023-03-21T11:11:08.420Z,100623.50
2023-03-21T11:13:42.748Z,100613.94
2023-03-21T11:16:27.356Z,100622.44
2023-03-21T11:19:12.314Z,100583.25
2023-03-21T11:21:44.495Z,100623.59
2023-03-21T11:24:18.822Z,100597.53
2023-03-21T11:26:51.291Z,100561.09
2023-03-21T11:29:47.382Z,100616.53
2023-03-21T11:32:26.582Z,100585.28
2023-03-21T11:35:22.311Z,100613.31
2023-03-21T11:37:56.338Z,100578.56
2023-03-21T11:40:36.429Z,100579.31
2023-03-21T11:43:16.969Z,100622.78
2023-03-21T11:46:06.097Z,100538.31
2023-03-21T11:48:46.940Z,100614.50
2023-03-21T11:51:27.347Z,100597.84
2023-03-21T11:54:35.754Z,100610.56
2023-03-21T11:58:00.156Z,100594.75
2023-03-21T12:00:54.779Z,100593.03
2023-03-21T12:04:03.173Z,100602.75
2023-03-21T12:06:45.638Z,100541.91
2023-03-21T12:09:29.472Z,100592.69
2023-03-21T12:12:11.825Z,100594.63
2023-03-21T12:15:22.191Z,100505.69
2023-03-21T12:18:34.594Z,100591.38
2023-03-21T12:21:09.264Z,100583.13
2023-03-21T12:24:17.862Z,100588.72
2023-03-21T12:27:11.196Z,100585.34
2023-03-21T12:30:13.427Z,100579.81
2023-03-21T12:33:07.659Z,100584.94
2023-03-21T12:36:00.880Z,100574.88
2023-03-21T12:38:57.070Z,100531.63
2023-03-21T12:41:54.260Z,100524.34
2023-03-21T12:44:29.828Z,100526.09
2023-03-21T12:47:07.499Z,100513.84
2023-03-21T12:49:44.178Z,100559.44
2023-03-21T12:52:18.133Z,100568.53
2023-03-21T12:54:55.004Z,100547.03
2023-03-21T12:57:32.549Z,100536.63
2023-03-21T13:00:13.478Z,100513.50
2023-03-21T13:02:54.610Z,100476.88
2023-03-21T13:05:35.633Z,100549.38
2023-03-21T13:08:16.161Z,100537.78
2023-03-21T13:10:47.584Z,100536.84
2023-03-21T13:13:37.431Z,100543.38
2023-03-21T13:16:30.818Z,100536.66
2023-03-21T13:19:16.250Z,100510.25
2023-03-21T13:22:10.232Z,100522.16
2023-03-21T13:24:47.137Z,100452.66
2023-03-21T13:27:21.490Z,100487.56
2023-03-21T13:29:59.934Z,100514.75
2023-03-21T13:32:45.393Z,100440.53
2023-03-21T13:35:27.724Z,100509.22
2023-03-21T13:38:05.738Z,100521.47
2023-03-21T13:40:50.470Z,100498.63
2023-03-21T13:43:42.077Z,100481.38
2023-03-21T13:46:25.517Z,100511.97
2023-03-21T13:49:10.563Z,100503.19
2023-03-21T13:51:53.111Z,100496.38
2023-03-21T13:54:34.204Z,100412.28
2023-03-21T13:57:06.828Z,100442.63
2023-03-21T13:59:38.605Z,100500.41
2023-03-21T14:02:13.037Z,100488.22
2023-03-21T14:05:03.743Z,100473.91
2023-03-21T14:07:42.375Z,100474.16
2023-03-21T14:10:20.422Z,100467.13
2023-03-21T14:12:53.018Z,100449.69
2023-03-21T14:15:30.999Z,100472.38
2023-03-21T14:18:15.811Z,100450.66
2023-03-21T14:20:58.357Z,100417.41
2023-03-21T14:23:29.753Z,100472.63
2023-03-21T14:26:01.066Z,100477.94
2023-03-21T14:28:33.358Z,100426.25
2023-03-21T14:31:04.842Z,100453.31
2023-03-21T14:33:41.480Z,100421.81
2023-03-21T14:36:20.822Z,100451.34
2023-03-21T14:39:07.113Z,100419.84
2023-03-21T14:41:52.065Z,100375.25
2023-03-21T14:44:54.982Z,100457.50
2023-03-21T14:47:29.294Z,100393.13
2023-03-21T14:50:03.497Z,100456.91
2023-03-21T14:52:35.169Z,100462.06
2023-03-21T14:55:15.461Z,100436.84
2023-03-21T14:57:48.341Z,100435.47
2023-03-21T15:00:29.119Z,100403.38
2023-03-21T15:03:01.145Z,100438.44
2023-03-21T15:05:37.230Z,100402.66
2023-03-21T15:08:15.416Z,100367.72
2023-03-21T15:11:07.155Z,100457.63
2023-03-21T15:13:54.613Z,100436.63
2023-03-21T15:16:26.098Z,100394.09
2023-03-21T15:18:59.011Z,100438.56
2023-03-21T15:21:36.569Z,100407.03
2023-03-21T15:24:23.540Z,100429.44
2023-03-21T15:27:00.659Z,100441.66
2023-03-21T15:29:34.297Z,100396.41
2023-03-21T15:32:12.784Z,100424.25
2023-03-21T15:34:45.352Z,100344.06
2023-03-21T15:37:23.028Z,100406.69
2023-03-21T15:40:06.458Z,100382.38
2023-03-21T15:42:40.737Z,100408.53
2023-03-21T15:45:26.585Z,100362.41
2023-03-21T15:48:13.008Z,100416.72
2023-03-21T15:50:56.642Z,100400.13
2023-03-21T15:53:32.622Z,100328.59
2023-03-21T15:56:05.999Z,100394.03
2023-03-21T15:58:42.717Z,100327.69
2023-03-21T16:01:22.344Z,100389.56
2023-03-21T16:04:02.034Z,100340.72
2023-03-21T16:06:35.605Z,100400.94
2023-03-21T16:09:22.083Z,100388.63
2023-03-21T16:11:59.008Z,100402.63
2023-03-21T16:14:30.463Z,100389.63
2023-03-21T16:17:01.804Z,100317.06
2023-03-21T16:19:33.099Z,100320.63
2023-03-21T16:22:09.771Z,100327.47
2023-03-21T16:24:41.082Z,100352.78
2023-03-21T16:27:12.873Z,100337.25
2023-03-21T16:29:44.182Z,100388.75
2023-03-21T16:32:17.864Z,100292.69
2023-03-21T16:34:49.276Z,100377.53
2023-03-21T16:37:21.496Z,100305.00
2023-03-21T16:39:53.014Z,100371.41
2023-03-21T16:42:24.419Z,100372.34
2023-03-21T16:44:56.041Z,100388.00
2023-03-21T16:47:27.346Z,100319.16
2023-03-21T16:49:58.662Z,100300.88
2023-03-21T16:52:30.176Z,100336.63
2023-03-21T16:55:01.492Z,100384.72
2023-03-21T16:57:32.790Z,100377.75
2023-03-21T17:00:07.320Z,100370.72
2023-03-21T17:02:38.713Z,100304.63
2023-03-21T17:05:11.481Z,100391.03
2023-03-21T17:07:44.015Z,100393.69
2023-03-21T17:10:25.146Z,100343.88
2023-03-21T17:12:56.536Z,100303.03
2023-03-21T17:15:27.886Z,100371.81
2023-03-21T17:17:59.225Z,100370.94
2023-03-21T17:20:33.219Z,100376.06
2023-03-21T17:23:04.936Z,100365.66
2023-03-21T17:25:36.271Z,100381.38
2023-03-21T17:28:07.602Z,100348.31
2023-03-21T17:30:39.943Z,100380.59
2023-03-21T17:33:11.700Z,100365.88
2023-03-21T17:35:43.173Z,100364.97
2023-03-21T17:38:17.214Z,100388.69
2023-03-21T17:40:50.465Z,100378.41
2023-03-21T17:43:23.233Z,100337.50
2023-03-21T17:45:54.515Z,100393.47
2023-03-21T17:48:25.924Z,100333.34
2023-03-21T17:50:57.366Z,100303.78
2023-03-21T17:53:28.718Z,100296.81
2023-03-21T17:56:00.489Z,100329.25
2023-03-21T17:58:31.868Z,100381.69
2023-03-21T18:01:03.463Z,100375.78
2023-03-21T18:03:34.902Z,100382.03
2023-03-21T18:06:12.563Z,100364.53
2023-03-21T18:08:44.837Z,100375.16
2023-03-21T18:11:17.724Z,100382.13
2023-03-21T18:13:50.543Z,100369.97
2023-03-21T18:16:24.332Z,100281.88
2023-03-21T18:18:56.697Z,100341.44
2023-03-21T18:21:32.212Z,100373.81
2023-03-21T18:24:04.373Z,100380.84
2023-03-21T18:26:35.749Z,100312.88
2023-03-21T18:30:13.239Z,100289.25
2023-03-21T18:32:06.369Z,100322.53
2023-03-21T18:34:40.285Z,100354.00
2023-03-21T18:37:13.428Z,100324.47
2023-03-21T18:39:45.504Z,100280.94
2023-03-21T18:42:20.400Z,100330.75
2023-03-21T18:44:54.311Z,100316.16
2023-03-21T18:47:25.959Z,100289.16
2023-03-21T18:50:13.234Z,100307.69
2023-03-21T18:52:45.829Z,100334.72
2023-03-21T18:55:18.625Z,100291.91
2023-03-21T18:57:51.961Z,100382.56
2023-03-21T19:00:25.535Z,100293.41
2023-03-21T19:03:13.066Z,100364.03
2023-03-21T19:05:48.894Z,100290.56
2023-03-21T19:08:20.364Z,100352.50
2023-03-21T19:10:52.160Z,100353.28
2023-03-21T19:13:23.504Z,100369.00
2023-03-21T19:15:56.157Z,100361.81
2023-03-21T19:18:57.087Z,100354.78
2023-03-21T19:21:19.748Z,100377.41
2023-03-21T19:26:42.737Z,100360.66
2023-03-21T19:29:15.476Z,100357.81
2023-03-21T19:31:47.180Z,100307.13
2023-03-21T19:34:18.822Z,100327.06
2023-03-21T19:36:51.872Z,100300.78
2023-03-21T19:39:25.261Z,100349.69
2023-03-21T19:42:14.825Z,100298.19
2023-03-21T19:44:47.201Z,100289.31
2023-03-21T19:47:20.686Z,100311.25
2023-03-21T19:52:46.038Z,100354.84
2023-03-21T19:55:17.805Z,100345.97
2023-03-21T19:57:49.269Z,100312.75
2023-03-21T20:00:21.246Z,100306.50
2023-03-21T20:02:52.672Z,100349.34
2023-03-21T20:05:25.553Z,100308.22
2023-03-21T20:08:01.048Z,100356.06
2023-03-21T20:10:32.546Z,100270.56
2023-03-21T20:13:03.842Z,100328.97
2023-03-21T20:15:45.849Z,100341.25
2023-03-21T20:18:20.538Z,100258.16
2023-03-21T20:20:53.252Z,100327.94
2023-03-21T20:23:24.745Z,100332.41
2023-03-21T20:25:56.036Z,100252.00
2023-03-21T20:28:28.959Z,100319.19
2023-03-21T20:31:01.914Z,100325.19
2023-03-21T20:33:33.869Z,100320.75
2023-03-21T20:36:37.702Z,100325.25
2023-03-21T20:38:58.751Z,100259.91
2023-03-21T20:41:30.372Z,100259.84
2023-03-21T20:46:53.411Z,100299.13
2023-03-21T20:49:26.083Z,100343.66
2023-03-21T20:54:49.297Z,100322.59
2023-03-21T20:57:21.020Z,100329.63
2023-03-21T20:59:57.506Z,100320.75
2023-03-21T21:02:28.982Z,100318.16
2023-03-21T21:07:51.685Z,100275.31
2023-03-21T21:10:23.312Z,100312.00
2023-03-21T21:12:54.610Z,100330.44
2023-03-21T21:15:26.290Z,100313.94
2023-03-21T21:18:06.067Z,100318.31
2023-03-21T21:20:39.377Z,100307.81
2023-03-21T21:23:10.944Z,100235.41
2023-03-21T21:25:42.238Z,100247.72
2023-03-21T21:28:14.295Z,100319.31
2023-03-21T21:30:45.615Z,100265.19
2023-03-21T21:33:20.987Z,100309.72
2023-03-21T21:35:54.637Z,100304.50
2023-03-21T21:38:26.527Z,100295.75
2023-03-21T21:40:59.348Z,100289.56
2023-03-21T21:43:30.906Z,100249.50
2023-03-21T21:46:02.378Z,100293.13
2023-03-21T21:48:34.199Z,100310.59
2023-03-21T21:51:05.963Z,100309.84
2023-03-21T21:53:38.767Z,100308.03
2023-03-21T21:56:10.476Z,100297.56
2023-03-21T21:58:47.542Z,100246.16
2023-03-21T22:01:22.640Z,100299.34
2023-03-21T22:03:57.459Z,100256.50
2023-03-21T22:06:28.751Z,100296.75
2023-03-21T22:09:00.921Z,100286.28
2023-03-21T22:11:33.001Z,100236.69
2023-03-21T22:14:04.374Z,100291.78
2023-03-21T22:16:35.854Z,100213.38
2023-03-21T22:19:07.253Z,100269.41
2023-03-21T22:21:38.548Z,100208.41
2023-03-21T22:24:09.960Z,100279.28
2023-03-21T22:26:41.415Z,100266.97
2023-03-21T22:29:12.816Z,100212.00
2023-03-21T22:31:44.539Z,100186.75
2023-03-21T22:34:15.994Z,100264.47
2023-03-21T22:36:47.330Z,100268.03
2023-03-21T22:39:20.134Z,100252.59
2023-03-21T22:41:57.805Z,100184.00
2023-03-21T22:44:34.877Z,100260.19
2023-03-21T22:47:08.973Z,100203.63
2023-03-21T22:49:42.531Z,100251.88
2023-03-21T22:52:14.177Z,100238.88
2023-03-21T22:54:46.535Z,100262.63
2023-03-21T22:57:20.582Z,100272.28
2023-03-21T22:59:52.117Z,100184.19
2023-03-21T23:02:23.504Z,100195.50
2023-03-21T23:04:54.808Z,100266.22
2023-03-21T23:07:26.128Z,100213.81
2023-03-21T23:09:57.441Z,100274.16
2023-03-21T23:12:28.813Z,100203.63
2023-03-21T23:15:02.191Z,100217.69
2023-03-21T23:17:34.170Z,100276.41
2023-03-21T23:20:07.089Z,100226.63
2023-03-21T23:22:38.455Z,100247.63
2023-03-21T23:25:09.871Z,100251.81
2023-03-21T23:27:41.621Z,100249.94
2023-03-21T23:30:13.005Z,100267.16
2023-03-21T23:32:44.343Z,100257.41
2023-03-21T23:35:16.204Z,100226.53
2023-03-21T23:37:51.881Z,100233.50
2023-03-21T23:40:23.485Z,100243.19
2023-03-21T23:42:54.817Z,100220.59
2023-03-21T23:45:26.258Z,100239.81
2023-03-21T23:47:57.869Z,100235.72
2023-03-21T23:50:29.343Z,100256.84
2023-03-21T23:53:00.670Z,100258.03
2023-03-21T23:55:32.007Z,100261.50
2023-03-21T23:58:04.195Z,100241.34
